Terminal Aerodrome Forecast
Issued by NWS Paducah, KY

Home | Current Version | Previous Version | Text Only | Print | Product List | Glossary Off
Versions: 1 2 3 4 5 6 7 8 9 10 11 12 13 14 15 16

236
FTUS43 KPAH 210522
TAFPAH
TAF
KPAH 210522Z 2106/2206 17006KT P6SM OVC035
     FM210900 18007KT 5SM -DZ BR OVC025
     FM211400 18009KT 4SM -DZ BR OVC008
     FM220200 17009KT P6SM BKN020=

USA.gov is the U.S. government's official web portal to all federal, state and local government web resources and services.